Hiawatha, KS

12:46 AM CST 2017 otsaila ren 25 an (GMT -0600)
South Hiawatha | | Change Station

Elev 1132 ft 39.85 °N, 95.54 °W | Updated 11 seconds ago

Partzialki estalia
Partzialki estalia
23.2 °F
Feels Like 23 °F
N
1.7
Haizea Aldagarria Haizea from Mendebalde

Gaur
High -- | Low -- °F
--% Chance of Precip.
Yesterday
High -- | Low -- °F
Precip. -- in
Presioa 30.10 in
Ikusgaitasuna 10.0 Miliak
Clouds Goraki estalia 3800 ft
Izozki haizeak 23 °F
Ihintzaren maila 20 °F
Afoinua 87%
Rainfall 0.00 in
Snow Depth Not available.
7:00 AM 6:10 PM
Waning Crescent, 2% visible
METAR KFNB 250553Z AUTO 30011KT 10SM BKN038 M04/M08 A3007 RMK AO2 SLP193 60000 T10441078 11033 21044 400391044 51015
Presioa 30.10 in
Ikusgaitasuna 10.0 Miliak
Clouds Goraki estalia 3800 ft
Izozki haizeak 23 °F
Ihintzaren maila 20 °F
Afoinua 87%
Rainfall 0.00 in
Snow Depth Not available.
7:00 AM 6:10 PM
Waning Crescent, 2% visible
METAR KFNB 250553Z AUTO 30011KT 10SM BKN038 M04/M08 A3007 RMK AO2 SLP193 60000 T10441078 11033 21044 400391044 51015

Get Your Daily Forecast Email!

Thanks for signing up!

Be on the lookout for a verification email in your inbox.

You'll start receiving the daily forecast at 8 AM.

×

10-Day Weather Forecast

Almanac

Astronomy

Feb. 25, 2017 Rise Set
Actual Time
Civil Twilight
Nautical Twilight
Astronomical Twilight
Moon
Length Of Visible Light
Length of Day
Tomorrow will be .
, % of the Moon is Illuminated

Today's Extremes

State Highs State Lows

Community

WunderPhotos

Upload Photos

1,962,540 photos uploaded!

WunderBlog® & News

Nearby

Air Quality

  Air Quality AQ Index Pollutant
Not available.

Snow Depth

Station Depth Elevation

Earthquake Activity

City Distance Mag. Time & Date
Minimum magnitude displayed is 2.5.

Coastal Water Temperatures

Lekua Tenperatura

Stations

Nearby Weather Stations

Station Location Temp Izozki haizeak Ihintzaren maila Afoinua Haizea Precip. Elev Eguneratuta Type
                   

Watches & Warnings

There are currently no watches in effect.